Time;durP1;ratioP1;P1;durP2;ratioP2;P2;SDS_P1;SDS_P2;PMS_P1;PMS_P2;Temp;Humidity;BMP_temperature;BMP_pressure;BME280_temperature;BME280_humidity;BME280_pressure;Samples;Min_cycle;Max_cycle;Signal;HPM_P1;HPM_P2
2023/02/11 00:02:43;;;;;;;61.67;30.90;;;5.20;99.90;;;;;;15120504;23;20032;-36
2023/02/11 00:08:48;;;;;;;59.05;30.50;;;5.20;99.90;;;;;;15121721;23;20133;-36
2023/02/11 00:14:50;;;;;;;62.67;31.38;;;5.30;99.90;;;;;;15120127;23;20410;-36
2023/02/11 00:20:52;;;;;;;59.28;30.90;;;5.30;99.90;;;;;;15127022;23;20029;-36
2023/02/11 00:26:54;;;;;;;60.00;29.52;;;5.40;99.90;;;;;;15123263;23;20045;-36
2023/02/11 00:32:56;;;;;;;59.45;31.60;;;5.40;99.90;;;;;;15124795;23;20022;-37
2023/02/11 00:38:58;;;;;;;56.42;29.92;;;5.40;99.90;;;;;;15124248;23;20032;-36
2023/02/11 00:45:00;;;;;;;60.80;30.25;;;5.30;99.90;;;;;;15123542;23;20463;-36
2023/02/11 00:51:03;;;;;;;58.50;30.67;;;5.40;99.90;;;;;;15121459;23;20463;-36
2023/02/11 00:57:04;;;;;;;65.00;31.55;;;5.50;99.90;;;;;;15127453;23;20049;-36
2023/02/11 01:03:06;;;;;;;59.15;31.92;;;5.50;99.90;;;;;;15128385;23;20018;-36
2023/02/11 01:09:08;;;;;;;60.17;30.67;;;5.60;99.90;;;;;;15125056;23;20022;-36
2023/02/11 01:15:14;;;;;;;57.92;29.13;;;5.50;99.90;;;;;;15126210;23;20113;-36
2023/02/11 01:21:17;;;;;;;64.43;30.98;;;5.60;99.90;;;;;;15129343;23;20515;-37
2023/02/11 01:27:18;;;;;;;65.65;30.73;;;5.50;99.90;;;;;;15117681;23;20467;-37
2023/02/11 01:33:21;;;;;;;55.28;29.90;;;5.40;99.90;;;;;;15119759;23;20057;-36
2023/02/11 01:39:23;;;;;;;58.33;30.60;;;5.40;99.90;;;;;;15119443;23;20631;-36
2023/02/11 01:45:43;;;;;;;60.05;30.23;;;5.40;99.90;;;;;;15126980;23;20100;-37
2023/02/11 01:52:00;;;;;;;53.88;29.10;;;5.50;99.90;;;;;;15124640;23;20032;-36
2023/02/11 01:58:04;;;;;;;56.15;29.02;;;5.50;99.90;;;;;;15128941;23;20030;-37
2023/02/11 02:04:08;;;;;;;55.13;28.33;;;5.50;99.90;;;;;;15125106;23;20026;-36
2023/02/11 02:10:15;;;;;;;60.97;30.05;;;5.50;99.90;;;;;;15129777;23;20154;-37
2023/02/11 02:16:20;;;;;;;59.25;29.63;;;5.50;99.90;;;;;;15125627;23;20034;-37
2023/02/11 02:22:49;;;;;;;58.85;29.60;;;5.50;99.90;;;;;;15125976;23;20022;-37
2023/02/11 02:29:07;;;;;;;62.47;30.75;;;5.50;99.90;;;;;;15127283;23;20018;-36
2023/02/11 02:35:15;;;;;;;63.25;30.55;;;5.40;99.90;;;;;;15125127;23;20083;-36
2023/02/11 02:41:22;;;;;;;67.30;32.80;;;5.40;99.90;;;;;;15125310;23;20030;-36
2023/02/11 02:47:23;;;;;;;67.32;32.45;;;5.40;99.90;;;;;;15127403;23;20024;-37
2023/02/11 02:53:43;;;;;;;65.63;31.30;;;5.40;99.90;;;;;;15128059;23;20023;-36
2023/02/11 03:00:13;;;;;;;65.97;31.70;;;5.40;99.90;;;;;;15126063;23;20033;-37
2023/02/11 03:06:37;;;;;;;69.40;33.15;;;5.30;99.90;;;;;;15122957;23;20018;-37
2023/02/11 03:12:42;;;;;;;62.75;31.23;;;5.30;99.90;;;;;;15125137;23;20026;-37
2023/02/11 03:18:50;;;;;;;68.45;34.25;;;5.30;99.90;;;;;;15123174;23;20026;-36
2023/02/11 03:24:54;;;;;;;66.20;32.72;;;5.20;99.90;;;;;;15120077;23;20033;-37
2023/02/11 03:31:09;;;;;;;64.57;31.15;;;5.20;99.90;;;;;;15125010;23;20019;-36
2023/02/11 03:37:26;;;;;;;72.95;34.13;;;5.10;99.90;;;;;;15119766;23;20126;-36
2023/02/11 03:43:48;;;;;;;69.93;33.78;;;5.10;99.90;;;;;;15125218;23;20034;-36
2023/02/11 03:49:52;;;;;;;72.65;35.55;;;5.10;99.90;;;;;;15129485;23;20018;-37
2023/02/11 03:55:57;;;;;;;66.95;33.22;;;5.00;99.90;;;;;;15121511;23;20030;-36
2023/02/11 04:01:58;;;;;;;74.47;35.53;;;5.00;99.90;;;;;;15118747;23;20732;-36
2023/02/11 04:08:01;;;;;;;78.57;35.53;;;5.00;99.90;;;;;;15099165;23;20027;-36
2023/02/11 04:14:03;;;;;;;65.50;35.28;;;5.00;99.90;;;;;;15127193;23;20034;-36
2023/02/11 04:20:05;;;;;;;69.00;34.58;;;5.00;99.90;;;;;;15124663;23;20321;-36
2023/02/11 04:26:07;;;;;;;74.70;36.40;;;5.00;99.90;;;;;;15037233;23;20050;-36
2023/02/11 04:32:10;;;;;;;82.53;36.30;;;5.00;99.90;;;;;;15057482;23;20409;-36
2023/02/11 04:38:12;;;;;;;74.25;34.55;;;5.00;99.90;;;;;;15050588;23;20035;-36
2023/02/11 04:44:14;;;;;;;74.80;35.58;;;5.00;99.90;;;;;;15052604;23;20023;-36
2023/02/11 04:50:16;;;;;;;74.78;36.63;;;5.00;99.90;;;;;;15058485;23;20029;-36
2023/02/11 04:56:18;;;;;;;73.38;35.53;;;5.00;99.90;;;;;;15057399;23;20360;-36
2023/02/11 05:02:20;;;;;;;68.45;33.08;;;5.00;99.90;;;;;;15050698;23;20352;-36
2023/02/11 05:08:21;;;;;;;73.72;34.08;;;5.10;99.90;;;;;;15053409;23;20347;-36
2023/02/11 05:14:23;;;;;;;67.88;32.28;;;5.10;99.90;;;;;;15057141;23;20342;-37
2023/02/11 05:20:25;;;;;;;61.13;31.30;;;5.10;99.90;;;;;;15057058;23;20031;-36
2023/02/11 05:26:27;;;;;;;63.58;31.73;;;5.20;99.90;;;;;;15116631;23;20029;-36
2023/02/11 05:32:29;;;;;;;55.65;29.90;;;5.20;99.90;;;;;;15123328;23;20026;-37
2023/02/11 05:38:30;;;;;;;56.88;28.58;;;5.30;99.90;;;;;;15129217;23;20023;-36
2023/02/11 05:44:32;;;;;;;52.90;27.27;;;5.30;99.90;;;;;;15125700;23;20109;-37
2023/02/11 05:50:34;;;;;;;54.65;27.63;;;5.40;99.90;;;;;;15128429;23;20483;-37
2023/02/11 05:56:36;;;;;;;53.90;27.20;;;5.40;99.90;;;;;;15125483;23;20029;-36
2023/02/11 06:02:37;;;;;;;49.83;27.00;;;5.40;99.90;;;;;;15121367;23;20022;-37
2023/02/11 06:08:39;;;;;;;54.70;28.25;;;5.40;99.90;;;;;;15129976;23;20022;-37
2023/02/11 06:14:41;;;;;;;54.75;27.45;;;5.40;99.90;;;;;;15095970;23;20101;-36
2023/02/11 06:20:43;;;;;;;53.15;26.60;;;5.40;99.90;;;;;;15123495;23;20026;-37
2023/02/11 06:26:45;;;;;;;52.20;27.40;;;5.40;99.90;;;;;;15122695;23;20026;-37
2023/02/11 06:32:46;;;;;;;54.45;28.58;;;5.40;99.90;;;;;;15123639;23;20022;-36
2023/02/11 06:38:49;;;;;;;60.97;27.33;;;5.40;99.90;;;;;;15128124;23;20034;-36
2023/02/11 06:44:50;;;;;;;59.05;28.20;;;5.40;99.90;;;;;;15125079;23;20057;-37
2023/02/11 06:50:52;;;;;;;57.20;27.77;;;5.50;99.90;;;;;;15125528;23;20485;-37
2023/02/11 06:56:54;;;;;;;54.20;26.75;;;5.40;99.90;;;;;;15126029;23;20045;-36
2023/02/11 07:02:56;;;;;;;54.85;27.75;;;5.40;99.90;;;;;;15123418;23;20018;-36
2023/02/11 07:08:58;;;;;;;53.13;27.58;;;5.40;99.90;;;;;;15122162;23;20023;-36
2023/02/11 07:14:59;;;;;;;61.83;29.15;;;5.40;99.90;;;;;;15126692;23;20026;-36
2023/02/11 07:21:06;;;;;;;59.65;28.67;;;5.40;99.90;;;;;;15124200;23;20045;-36
2023/02/11 07:27:07;;;;;;;55.30;27.70;;;5.40;99.90;;;;;;15124314;23;20343;-37
2023/02/11 07:33:09;;;;;;;56.30;28.50;;;5.40;99.90;;;;;;15122174;23;20363;-37
2023/02/11 07:39:11;;;;;;;60.92;28.80;;;5.40;99.90;;;;;;15126440;23;20022;-37
2023/02/11 07:45:13;;;;;;;60.97;29.70;;;5.40;99.90;;;;;;15120629;23;20034;-37
2023/02/11 07:51:18;;;;;;;62.78;29.48;;;5.40;99.90;;;;;;15121710;23;20023;-37
2023/02/11 07:57:19;;;;;;;;;;;5.40;99.90;;;;;;15126206;23;20030;-36
2023/02/11 08:03:21;;;;;;;50.53;28.00;;;5.40;99.90;;;;;;15119328;23;19917;-36
2023/02/11 08:09:23;;;;;;;55.22;28.83;;;5.50;99.90;;;;;;15127092;23;20097;-37
2023/02/11 08:15:25;;;;;;;60.33;30.20;;;5.50;99.90;;;;;;15126417;23;20034;-37
2023/02/11 08:21:27;;;;;;;59.42;28.50;;;5.60;99.90;;;;;;15121854;23;20026;-37
2023/02/11 08:27:29;;;;;;;64.85;31.52;;;5.50;99.90;;;;;;15127354;23;20029;-37
2023/02/11 08:33:32;;;;;;;57.90;27.75;;;5.60;99.90;;;;;;15121319;23;20030;-37
2023/02/11 08:39:34;;;;;;;57.75;28.00;;;5.60;99.90;;;;;;15118932;23;20395;-37
2023/02/11 08:45:36;;;;;;;57.10;28.77;;;5.70;99.90;;;;;;15120614;23;20026;-37
2023/02/11 08:51:38;;;;;;;60.75;27.15;;;5.70;99.90;;;;;;15119767;23;20018;-36
2023/02/11 08:57:40;;;;;;;58.78;28.27;;;5.80;99.90;;;;;;15124231;23;20019;-36
2023/02/11 09:03:42;;;;;;;55.95;26.33;;;5.90;99.90;;;;;;15127750;23;20367;-36
2023/02/11 09:09:43;;;;;;;62.17;28.70;;;5.80;99.90;;;;;;15126012;23;20057;-37
2023/02/11 09:15:45;;;;;;;59.75;28.50;;;5.80;99.90;;;;;;15128704;23;20463;-36
2023/02/11 09:21:47;;;;;;;70.65;30.88;;;5.80;99.90;;;;;;15122646;23;20062;-36
2023/02/11 09:27:51;;;;;;;57.53;29.10;;;5.80;99.90;;;;;;15127103;23;20022;-37
2023/02/11 09:33:59;;;;;;;64.97;30.23;;;5.90;99.90;;;;;;15122896;23;20367;-37
2023/02/11 09:40:00;;;;;;;58.72;28.40;;;5.90;99.90;;;;;;15118388;23;20027;-36
2023/02/11 09:46:03;;;;;;;56.50;28.58;;;6.00;99.90;;;;;;15129407;23;20054;-37
2023/02/11 09:52:24;;;;;;;61.25;28.40;;;6.00;99.90;;;;;;15125045;23;20033;-37
2023/02/11 09:58:32;;;;;;;57.05;27.05;;;6.10;99.90;;;;;;15125943;23;20027;-36
2023/02/11 10:04:47;;;;;;;49.92;26.80;;;6.10;99.90;;;;;;15128047;23;20277;-36
2023/02/11 10:11:02;;;;;;;53.45;26.67;;;6.20;99.90;;;;;;15128416;23;20030;-37
2023/02/11 10:17:34;;;;;;;62.35;29.02;;;6.20;99.90;;;;;;15122369;23;20026;-36
2023/02/11 10:23:40;;;;;;;55.40;27.25;;;6.20;99.90;;;;;;15119543;23;20026;-37
2023/02/11 10:29:48;;;;;;;54.20;27.15;;;6.30;99.90;;;;;;15127166;23;20018;-37
2023/02/11 10:35:50;;;;;;;52.25;26.00;;;6.30;99.90;;;;;;15121805;23;20026;-36
2023/02/11 10:42:00;;;;;;;54.50;27.33;;;6.30;99.90;;;;;;15120379;23;20362;-36
2023/02/11 10:48:25;;;;;;;54.00;27.00;;;6.30;99.90;;;;;;15122079;23;20445;-37
2023/02/11 10:54:27;;;;;;;60.65;27.88;;;6.20;99.90;;;;;;15119550;23;20040;-37
2023/02/11 11:00:37;;;;;;;60.15;28.75;;;6.20;99.90;;;;;;15122942;23;20157;-36
2023/02/11 11:06:39;;;;;;;57.28;27.23;;;6.20;99.90;;;;;;15122369;23;20027;-37
2023/02/11 11:12:44;;;;;;;58.97;28.48;;;6.30;99.90;;;;;;15125842;23;20022;-37
2023/02/11 11:18:47;;;;;;;;;;;6.30;99.90;;;;;;15123972;23;20082;-37
2023/02/11 11:24:53;;;;;;;49.63;24.80;;;6.40;99.90;;;;;;15120723;23;19921;-36
2023/02/11 11:30:56;;;;;;;48.30;24.27;;;6.50;99.90;;;;;;15124580;23;20041;-37
2023/02/11 11:37:08;;;;;;;45.92;23.35;;;6.60;99.90;;;;;;15092198;23;20030;-37
2023/02/11 11:43:13;;;;;;;44.97;22.77;;;6.70;99.90;;;;;;15125370;23;20106;-36
2023/02/11 11:49:32;;;;;;;;;;;6.80;99.90;;;;;;15126926;23;20518;-37
2023/02/11 11:55:59;;;;;;;37.10;19.63;;;7.00;99.90;;;;;;15124092;23;19939;-37
2023/02/11 12:02:38;;;;;;;34.28;18.23;;;7.00;99.90;;;;;;15095230;23;20035;-37
2023/02/11 12:08:40;;;;;;;33.47;18.60;;;7.10;99.90;;;;;;15125220;23;20475;-37
2023/02/11 12:14:58;;;;;;;35.92;19.00;;;7.20;99.90;;;;;;15124717;23;20367;-37
2023/02/11 12:21:24;;;;;;;36.13;19.27;;;7.20;99.90;;;;;;15122603;23;20033;-37
2023/02/11 12:27:48;;;;;;;37.35;19.77;;;7.20;99.90;;;;;;15124145;23;20032;-37
2023/02/11 12:34:18;;;;;;;41.53;20.60;;;7.20;99.90;;;;;;15119090;23;20038;-36
2023/02/11 12:40:23;;;;;;;38.72;20.27;;;7.30;99.90;;;;;;15119012;23;20036;-37
2023/02/11 12:46:37;;;;;;;43.65;21.23;;;7.20;99.90;;;;;;15123385;23;20018;-37
2023/02/11 12:52:47;;;;;;;;;;;7.30;99.90;;;;;;15128760;23;20101;-37
2023/02/11 12:58:53;;;;;;;51.08;23.17;;;7.20;99.90;;;;;;15130470;23;20036;-37
2023/02/11 13:05:17;;;;;;;41.88;21.70;;;7.20;99.90;;;;;;15131008;23;20212;-37
2023/02/11 13:11:36;;;;;;;45.72;21.92;;;7.20;99.90;;;;;;15128894;23;20033;-37
2023/02/11 13:18:01;;;;;;;39.15;20.08;;;7.20;99.90;;;;;;15130112;23;20452;-37
2023/02/11 13:24:27;;;;;;;41.28;21.10;;;7.30;99.90;;;;;;15128468;23;20023;-37
2023/02/11 13:30:39;;;;;;;44.78;21.45;;;7.30;99.90;;;;;;15127484;23;20097;-37
2023/02/11 13:36:55;;;;;;;45.13;23.33;;;7.30;99.90;;;;;;15122807;23;20082;-37
2023/02/11 13:43:00;;;;;;;49.97;24.67;;;7.30;99.90;;;;;;15125611;23;20348;-37
2023/02/11 13:49:01;;;;;;;;;;;7.30;99.90;;;;;;15127879;23;20026;-37
2023/02/11 13:55:13;;;;;;;44.22;22.67;;;7.30;99.90;;;;;;15097640;23;19917;-36
2023/02/11 14:15:16;;;;;;;46.65;22.92;;;7.40;99.90;;;;;;15125681;23;20030;-36
2023/02/11 14:21:29;;;;;;;44.20;21.85;;;7.40;99.90;;;;;;15119251;23;20032;-37
2023/02/11 14:27:54;;;;;;;44.38;22.90;;;7.40;99.90;;;;;;15127734;23;20034;-37
2023/02/11 14:34:03;;;;;;;;;;;7.50;99.90;;;;;;15122068;23;20026;-37
2023/02/11 14:40:05;;;;;;;44.22;22.15;;;7.40;99.90;;;;;;15119312;23;19921;-37
2023/02/11 14:46:08;;;;;;;50.75;23.35;;;7.50;99.90;;;;;;15089596;23;20344;-37
2023/02/11 14:52:32;;;;;;;43.20;22.52;;;7.50;99.90;;;;;;15125918;23;20033;-37
2023/02/11 14:58:33;;;;;;;41.65;23.08;;;7.50;99.90;;;;;;15123593;23;20018;-37
2023/02/11 15:04:36;;;;;;;47.55;23.40;;;7.50;99.90;;;;;;15118229;23;20026;-37
2023/02/11 15:10:43;;;;;;;44.50;22.58;;;7.50;99.90;;;;;;15127039;23;20029;-37
2023/02/11 15:16:46;;;;;;;52.50;24.60;;;7.50;99.90;;;;;;15126767;23;20460;-37
2023/02/11 15:22:54;;;;;;;47.40;24.77;;;7.50;99.90;;;;;;15117231;23;20022;-38
2023/02/11 15:28:56;;;;;;;48.72;23.20;;;7.60;99.90;;;;;;15124247;23;20028;-37
2023/02/11 15:34:59;;;;;;;47.13;23.38;;;7.50;99.90;;;;;;15125877;23;20037;-37
2023/02/11 15:41:03;;;;;;;48.25;24.45;;;7.60;99.90;;;;;;15126037;23;20081;-37
2023/02/11 15:47:09;;;;;;;41.23;24.60;;;7.60;99.90;;;;;;15126516;23;20029;-37
2023/02/11 15:53:41;;;;;;;45.03;23.15;;;7.60;99.90;;;;;;15117205;23;20259;-37
2023/02/11 15:59:51;;;;;;;46.33;24.55;;;7.60;99.90;;;;;;15123594;23;20022;-37
2023/02/11 16:05:58;;;;;;;46.33;22.67;;;7.60;99.90;;;;;;15124510;23;20057;-37
2023/02/11 16:12:03;;;;;;;40.47;23.13;;;7.60;99.90;;;;;;15124095;23;20028;-38
2023/02/11 16:18:23;;;;;;;40.25;21.92;;;7.60;99.90;;;;;;15123908;23;20031;-38
2023/02/11 16:24:38;;;;;;;44.55;22.92;;;7.60;99.90;;;;;;15124756;23;20023;-37
2023/02/11 16:30:42;;;;;;;42.60;23.65;;;7.60;99.90;;;;;;15125209;23;20252;-37
2023/02/11 16:36:44;;;;;;;47.53;23.58;;;7.50;99.90;;;;;;15121145;23;20027;-37
2023/02/11 16:42:46;;;;;;;46.20;23.67;;;7.50;99.90;;;;;;15126076;23;20460;-36
2023/02/11 16:48:48;;;;;;;44.92;24.25;;;7.60;99.90;;;;;;15131174;23;20065;-37
2023/02/11 16:54:50;;;;;;;50.33;24.58;;;7.60;99.90;;;;;;15099561;23;20030;-37
2023/02/11 17:00:52;;;;;;;47.70;23.63;;;7.60;99.90;;;;;;15126217;23;20465;-37
2023/02/11 17:06:54;;;;;;;39.50;23.08;;;7.60;99.90;;;;;;15124316;23;20030;-37
2023/02/11 17:13:00;;;;;;;;;;;7.60;99.90;;;;;;15129791;23;20022;-37
2023/02/11 17:19:02;;;;;;;45.90;23.33;;;7.60;99.90;;;;;;15129139;23;20432;-37
2023/02/11 17:25:05;;;;;;;48.75;23.05;;;7.60;99.90;;;;;;15122750;23;20029;-37
2023/02/11 17:31:08;;;;;;;42.97;23.27;;;7.60;99.90;;;;;;15125181;23;20351;-37
2023/02/11 17:37:10;;;;;;;46.53;22.50;;;7.60;99.90;;;;;;15122985;23;20440;-37
2023/02/11 17:43:11;;;;;;;39.30;22.33;;;7.60;99.90;;;;;;15126651;23;20026;-36
2023/02/11 17:49:14;;;;;;;40.25;21.55;;;7.60;99.90;;;;;;15122759;23;20019;-37
2023/02/11 17:55:16;;;;;;;40.72;23.17;;;7.60;99.90;;;;;;15123982;23;20370;-37
2023/02/11 18:01:18;;;;;;;42.58;23.45;;;7.60;99.90;;;;;;15125094;23;20030;-37
2023/02/11 18:07:20;;;;;;;43.20;22.75;;;7.60;99.90;;;;;;15126692;23;20027;-37
2023/02/11 18:13:22;;;;;;;40.95;22.00;;;7.60;99.90;;;;;;15123982;23;20423;-36
2023/02/11 18:19:24;;;;;;;38.13;21.30;;;7.60;99.90;;;;;;15123352;23;20032;-37
2023/02/11 18:25:26;;;;;;;37.60;22.23;;;7.70;99.90;;;;;;15122392;23;20674;-37
2023/02/11 18:31:28;;;;;;;35.58;20.50;;;7.80;99.90;;;;;;15129116;23;20452;-36
2023/02/11 18:37:30;;;;;;;35.58;21.65;;;7.70;99.90;;;;;;15105283;23;20104;-36
2023/02/11 18:43:33;;;;;;;40.42;22.80;;;7.80;99.90;;;;;;15129084;23;20547;-36
2023/02/11 18:49:35;;;;;;;39.05;22.05;;;7.80;99.90;;;;;;15127330;23;20158;-36
2023/02/11 18:55:38;;;;;;;41.72;22.55;;;7.80;99.90;;;;;;15129684;23;20026;-37
2023/02/11 19:01:42;;;;;;;39.73;22.63;;;7.70;99.90;;;;;;15128886;23;20022;-36
2023/02/11 19:07:44;;;;;;;39.88;22.45;;;7.60;99.90;;;;;;15128201;23;20023;-37
2023/02/11 19:13:50;;;;;;;35.67;21.98;;;7.60;99.90;;;;;;15130464;23;20062;-36
2023/02/11 19:19:52;;;;;;;37.90;22.67;;;7.70;99.90;;;;;;15102531;23;20026;-36
2023/02/11 19:25:54;;;;;;;38.55;22.88;;;7.70;99.90;;;;;;15124588;23;20109;-37
2023/02/11 19:31:55;;;;;;;38.30;23.48;;;7.60;99.90;;;;;;15130505;23;20392;-36
2023/02/11 19:37:57;;;;;;;47.25;23.60;;;7.60;99.90;;;;;;15124354;23;20471;-37
2023/02/11 19:44:00;;;;;;;39.88;23.75;;;7.50;99.90;;;;;;15098202;23;20105;-37
2023/02/11 19:50:04;;;;;;;41.80;23.02;;;7.50;99.90;;;;;;15101265;23;20061;-37
2023/02/11 19:56:06;;;;;;;42.37;24.00;;;7.50;99.90;;;;;;15124799;23;20035;-36
2023/02/11 20:02:11;;;;;;;47.65;24.80;;;7.50;99.90;;;;;;15127295;23;20109;-37
2023/02/11 20:08:15;;;;;;;40.75;23.88;;;7.60;99.90;;;;;;15130475;23;20026;-36
2023/02/11 20:14:18;;;;;;;40.80;24.45;;;7.60;99.90;;;;;;15121833;23;20053;-37
2023/02/11 20:20:19;;;;;;;40.03;23.00;;;7.60;99.90;;;;;;15127903;23;20030;-36
2023/02/11 20:26:23;;;;;;;45.88;24.80;;;7.60;99.90;;;;;;15126313;23;20018;-37
2023/02/11 20:32:25;;;;;;;47.08;23.73;;;7.70;99.90;;;;;;15127630;23;20028;-37
2023/02/11 20:38:26;;;;;;;38.17;22.67;;;7.70;99.90;;;;;;15122915;23;20037;-36
2023/02/11 20:44:28;;;;;;;41.28;24.08;;;7.60;99.90;;;;;;15126337;23;20032;-37
2023/02/11 20:50:32;;;;;;;39.67;22.60;;;7.60;99.90;;;;;;15101706;23;20329;-37
2023/02/11 20:56:35;;;;;;;37.55;22.88;;;7.60;99.90;;;;;;15120979;23;20036;-36
2023/02/11 21:02:38;;;;;;;43.43;23.43;;;7.60;99.90;;;;;;15125541;23;20057;-36
2023/02/11 21:08:39;;;;;;;41.63;22.52;;;7.60;99.90;;;;;;15128116;23;20105;-36
2023/02/11 21:14:41;;;;;;;33.40;21.10;;;7.60;99.90;;;;;;15128425;23;20072;-36
2023/02/11 21:20:43;;;;;;;38.72;22.25;;;7.70;99.90;;;;;;15130184;23;20022;-36
2023/02/11 21:26:45;;;;;;;36.33;21.65;;;7.60;99.90;;;;;;15126017;23;20026;-36
2023/02/11 21:32:47;;;;;;;34.50;21.17;;;7.70;99.90;;;;;;15131491;23;20022;-36
2023/02/11 21:38:49;;;;;;;34.33;20.30;;;7.70;99.90;;;;;;15130563;23;20129;-36
2023/02/11 21:44:51;;;;;;;36.90;21.90;;;7.70;99.90;;;;;;15105384;23;20105;-36
2023/02/11 21:50:53;;;;;;;33.22;20.08;;;7.70;99.90;;;;;;15129802;23;20105;-37
2023/02/11 21:56:54;;;;;;;24.58;16.60;;;7.70;99.90;;;;;;15128792;23;20045;-36
2023/02/11 22:02:56;;;;;;;28.52;16.55;;;7.70;99.90;;;;;;15127119;23;20022;-36
2023/02/11 22:09:06;;;;;;;32.33;16.80;;;7.70;99.90;;;;;;15130535;23;20057;-36
2023/02/11 22:15:08;;;;;;;23.00;13.15;;;7.70;99.90;;;;;;15126281;23;20031;-37
2023/02/11 22:21:13;;;;;;;24.60;12.45;;;7.70;99.90;;;;;;15125175;23;20030;-36
2023/02/11 22:27:16;;;;;;;22.42;11.68;;;7.70;99.90;;;;;;15128818;23;20022;-37
2023/02/11 22:33:22;;;;;;;20.52;11.27;;;7.70;99.90;;;;;;15127436;23;20356;-36
2023/02/11 22:39:24;;;;;;;23.60;12.23;;;7.70;99.90;;;;;;15129459;23;20032;-36
2023/02/11 22:45:26;;;;;;;24.33;14.65;;;7.60;99.90;;;;;;15102399;23;20105;-37
2023/02/11 22:51:29;;;;;;;26.08;15.10;;;7.50;99.90;;;;;;15121209;23;20026;-36
2023/02/11 22:57:31;;;;;;;27.17;16.45;;;7.50;99.90;;;;;;15126474;23;20022;-37
2023/02/11 23:03:33;;;;;;;24.63;13.73;;;7.40;99.90;;;;;;15127616;23;20034;-37
2023/02/11 23:09:36;;;;;;;22.02;13.15;;;7.40;99.90;;;;;;15127078;23;20098;-37
2023/02/11 23:15:39;;;;;;;20.73;11.98;;;7.40;99.90;;;;;;15125848;23;20074;-36
2023/02/11 23:21:41;;;;;;;23.00;11.90;;;7.40;99.90;;;;;;15103889;23;20037;-36
2023/02/11 23:27:43;;;;;;;18.58;10.35;;;7.50;99.90;;;;;;15127774;23;20105;-37
2023/02/11 23:33:46;;;;;;;15.02;9.23;;;7.60;99.90;;;;;;15126796;23;20058;-36
2023/02/11 23:39:48;;;;;;;16.60;8.10;;;7.60;99.90;;;;;;15127800;23;20171;-36
2023/02/11 23:45:50;;;;;;;16.23;8.20;;;7.70;99.90;;;;;;15126937;23;20029;-36
2023/02/11 23:51:53;;;;;;;13.57;7.43;;;7.70;99.90;;;;;;15127542;23;20022;-37
2023/02/11 23:57:55;;;;;;;13.40;8.15;;;7.70;99.90;;;;;;15098471;23;20146;-36
